KOGB/OGB METAR and TAF weather

Enter ICAO airport designator
Station Type Date Time Source
KOGB METAR 2019/12/06 01:53 UTC NOAA

KOGB 060153Z AUTO 08003KT 10SM CLR 05/02 A3019 RMK AO2 SLP224 T00500017


Station Type Date Time Source
KOGB Decoded METAR 2019/12/06 01:53 UTC NOAA

ORANGEBURG MUNICIPAL AIRPORT, SC, United States (KOGB) 33-28N 080-51W 59M
Dec 05, 2019 - 08:53 PM EST / 2019.12.06 0153 UTC
Wind: from the E (080 degrees) at 3 MPH (3 KT):0
Visibility: 10 mile(s):0
Sky conditions: clear
Temperature: 41.0 F (5.0 C)
Dew Point: 35.1 F (1.7 C)
Relative Humidity: 79%
Pressure (altimeter): 30.19 in. Hg (1022 hPa)
ob: KOGB 060153Z AUTO 08003KT 10SM CLR 05/02 A3019 RMK AO2 SLP224 T00500017
cycle: 2

Station Type Date Time Source
KOGB TAF 2019/12/05 21:06 UTC NOAA

TAF
AMD KOGB 052104Z 0521/0618 VRB04KT P6SM SCT250
FM060300 VRB03KT P6SM BKN120
FM061500 VRB04KT P6SM SCT050 BKN120

Example: see airport list